Airfield :
LOGIN :

Register | Disclaimer

   EN    FR    IT 

 










Legend :    VFR   Marginal VFR   IFR   Intensive IFR   Very Intensive IFR
Visi :
Ceiling :
>= 8 km
>= 3000ft
5 to 8 km
1000 to 3000 ft
1500m to 5 km
500 to 1000 ft
800 to 1500m
200 to 500 ft
< 800m
< 200 ft
Symbols :   Thunderstorms  Fog  Heavy snow  Heavy precipitations  Wind > 20 kt
SIGMETs :     Misc.  Thunderstorms  Icing  Turbulence  Mountain Waves  Volcanic Ashes







- Airport Elevation : 102 ft
- IATA code : EXT
- Download approach charts


EGTE - Exeter

CURRENT METAR :
  • 122250Z 13018G30KT 110V170 9999 FEW020 BKN042 06/01 Q1012

EXPIRED METARs :
  • 122220Z 14019KT 9999 SCT025 07/02 Q1013
  • 122150Z 14017KT 9999 BKN034 07/03 Q1013
  • 122120Z 13017KT 9999 BKN030 08/04 Q1013
  • 122050Z 13018KT 110V170 9999 BKN030 08/04 Q1014
  • 122020Z 13017KT 9999 BKN030 08/04 Q1014

TAF TAF EGTE
Valid from the 12 at 21:00 until the 13 at 04:00 UTC


121957Z 1221/1304 13015KT 9999 SCT025
PROB30
TEMPO 1221/1222 BKN014
PROB30
TEMPO 1221/1304 13018G28KT
No reported NOTAMs for that airfield.
1 SIGMET reported for the London FIR (EGTT) :
 
Severe turbulence
EGTT SIGMET 01 VALID 122330/130330 EGRR
EGTT LONDON FIR SEV TURB FCST W OF LINE N5500 W00400 - N4923 W00510 SFC/FL060 STNR NC=



MET'MAP, your aeronautical weather chart ! - Copyright ORBIFLY December 2007 - Disclaimer

ORBIFLY MET'MAP TEAM :

Programming & Development : Alexandra Zaïnal
Concept & Development : Baudouin d'Aumeries
Co-Development & Prog : Marc-Olivier Méhu
Technical & hardware support : Manuel Goepfert

Contact : metmap@orbifly.com




SOURCES & CREDITS :

   NOAA